weather.gov     
National Weather Service

Terminal Aerodrome Forecast
NWS Homepage
This page is being discontinued on March 12, 2014.
The same data is available at this site. Please update your bookmarks.
Thank you, and we apologize for the inconvenience.
Please send an email to SR-SRH.Webmaster@noaa.gov with any concerns.


Current Version
Previous Version:    01  02  03  04  05  06  07  08  09  10  11  12  13  14  15  16  17  18  19  20  21  22  23  24  25  26  27  28  29  30  
   31  32  33  34  35  
[Printable]
696
FTUS43 KMPX 231400 AAA
TAFRNH
TAF AMD
KRNH 231454Z 2315/2412 18004KT 6SM BR SCT007 OVC012
      TEMPO 2315/2316 1 1/2SM BR BKN004
     FM231600 20005KT P6SM SCT009 BKN015
     FM231700 23005KT P6SM SCT020
     FM231800 24006KT P6SM SKC
     FM240100 19003KT P6SM SKC
     FM240700 19004KT 4SM BR FEW250=


U.S. Dept. of Commerce
NOAA National Weather Service
1325 East West Highway
Silver Spring, MD 20910
E-mail: w-nws.webmaster@noaa.gov
Page last modified: May 16, 2007
NATIONAL WEATHER SERVICE: for Safety, for Work, for Fun - FOR LIFE